Time;durP1;ratioP1;P1;durP2;ratioP2;P2;SDS_P1;SDS_P2;PMS_P1;PMS_P2;Temp;Humidity;BMP_temperature;BMP_pressure;BME280_temperature;BME280_humidity;BME280_pressure;Samples;Min_cycle;Max_cycle;Signal;HPM_P1;HPM_P2
2022/01/20 07:44:26;;;;;;;42.35;16.55;;;;;;;1.13;100.00;99844.53;5129148;27;20378;-84
2022/01/20 07:46:54;;;;;;;16.23;8.00;;;;;;;1.20;100.00;99843.13;5131758;28;20126;-84
2022/01/20 07:49:20;;;;;;;12.63;6.00;;;;;;;1.19;100.00;99830.69;5130746;27;20043;-84
2022/01/20 07:51:47;;;;;;;10.93;5.40;;;;;;;1.32;100.00;99844.09;5130855;27;20501;-84
2022/01/20 07:54:14;;;;;;;10.85;5.03;;;;;;;1.34;100.00;99853.72;5130617;27;20071;-85
2022/01/20 07:56:41;;;;;;;11.68;4.65;;;;;;;1.28;100.00;99854.19;5130271;28;20052;-85
2022/01/20 07:59:12;;;;;;;10.57;4.45;;;;;;;1.25;100.00;99849.03;5130474;27;20055;-84
2022/01/20 08:01:40;;;;;;;10.70;4.97;;;;;;;1.35;100.00;99860.78;5130646;27;20512;-85
2022/01/20 08:04:06;;;;;;;8.13;4.53;;;;;;;1.31;100.00;99850.41;5130135;27;20047;-84
2022/01/20 08:06:33;;;;;;;5.53;4.03;;;;;;;1.27;100.00;99847.09;5130458;27;20101;-84
2022/01/20 08:09:00;;;;;;;14.07;6.05;;;;;;;1.29;100.00;99838.94;5130345;27;20481;-84
2022/01/20 08:11:27;;;;;;;14.82;6.07;;;;;;;1.45;100.00;99855.66;5130287;27;20049;-84
2022/01/20 08:13:55;;;;;;;11.57;5.82;;;;;;;1.54;100.00;99871.06;5130196;27;20093;-84
2022/01/20 08:16:22;;;;;;;9.85;5.00;;;;;;;1.57;100.00;99851.22;5130449;27;20055;-84
2022/01/20 08:18:53;;;;;;;11.05;5.18;;;;;;;1.63;100.00;99852.63;5130297;27;20047;-84
2022/01/20 08:21:20;;;;;;;14.20;5.50;;;;;;;1.62;100.00;99851.75;5130023;27;20051;-84
2022/01/20 08:23:48;;;;;;;16.98;5.32;;;;;;;1.70;100.00;99860.09;5129630;27;20518;-85
2022/01/20 08:26:31;;;;;;;13.55;5.05;;;;;;;1.67;100.00;99864.81;5129846;27;20059;-85
2022/01/20 08:28:59;;;;;;;19.98;5.10;;;;;;;1.58;100.00;99851.13;5129930;27;20050;-84
2022/01/20 08:31:26;;;;;;;9.82;5.05;;;;;;;1.74;100.00;99882.16;5129941;27;20092;-83
2022/01/20 08:33:54;;;;;;;16.33;6.10;;;;;;;1.70;100.00;99878.88;5129867;27;20047;-85
2022/01/20 08:36:22;;;;;;;13.05;6.13;;;;;;;1.74;100.00;99872.28;5129601;27;20047;-84
2022/01/20 08:38:49;;;;;;;11.95;6.75;;;;;;;1.83;100.00;99896.75;5129657;27;20044;-84
2022/01/20 08:41:18;;;;;;;12.05;6.28;;;;;;;1.74;100.00;99874.97;5127962;27;20047;-84
2022/01/20 08:43:45;;;;;;;12.60;5.80;;;;;;;1.86;100.00;99891.16;5109035;28;20054;-84
2022/01/20 08:46:13;;;;;;;10.73;5.85;;;;;;;1.85;100.00;99876.91;5109024;28;20056;-84
2022/01/20 08:48:41;;;;;;;20.27;6.25;;;;;;;1.94;100.00;99880.72;5109159;28;20104;-84
2022/01/20 08:51:09;;;;;;;14.18;6.10;;;;;;;1.97;100.00;99882.31;5108956;28;20051;-84
2022/01/20 08:53:36;;;;;;;14.10;5.57;;;;;;;1.91;100.00;99892.53;5107633;28;20051;-84
2022/01/20 08:56:03;;;;;;;11.15;5.47;;;;;;;1.89;100.00;99890.94;5094940;28;20406;-84
2022/01/20 08:58:32;;;;;;;12.18;5.65;;;;;;;1.86;100.00;99880.44;5095329;28;20440;-84
2022/01/20 09:01:02;;;;;;;22.92;6.03;;;;;;;1.97;100.00;99896.56;5095212;28;20139;-84
2022/01/20 09:03:29;;;;;;;14.65;5.65;;;;;;;2.03;100.00;99898.84;5095280;28;20044;-85
2022/01/20 09:05:56;;;;;;;14.77;6.60;;;;;;;1.99;100.00;99899.16;5095142;28;20055;-84
2022/01/20 09:08:24;;;;;;;10.18;6.38;;;;;;;2.12;100.00;99892.78;5094789;28;20478;-83
2022/01/20 09:10:55;;;;;;;20.35;6.65;;;;;;;2.14;100.00;99900.72;5094918;28;20136;-84
2022/01/20 09:16:06;;;;;;;10.77;4.55;;;;;;;2.15;100.00;99898.88;5094868;28;20074;-84
2022/01/20 09:18:33;;;;;;;18.02;5.03;;;;;;;2.19;100.00;99903.91;5094833;28;20052;-84
2022/01/20 09:21:00;;;;;;;18.77;5.35;;;;;;;2.27;100.00;99914.94;5094652;28;20068;-84
2022/01/20 09:23:28;;;;;;;13.15;5.70;;;;;;;2.25;100.00;99907.97;5094670;28;20536;-84
2022/01/20 09:25:55;;;;;;;11.77;5.03;;;;;;;2.25;100.00;99891.88;5094725;28;20139;-84
2022/01/20 09:28:22;;;;;;;15.10;4.65;;;;;;;2.29;100.00;99888.84;5094701;28;20047;-84
2022/01/20 09:30:50;;;;;;;7.57;4.80;;;;;;;2.35;100.00;99900.09;5094840;28;20076;-84
2022/01/20 09:33:25;;;;;;;14.43;5.00;;;;;;;2.30;100.00;99893.25;5094384;28;20121;-84
2022/01/20 09:35:53;;;;;;;15.93;4.20;;;;;;;2.36;100.00;99894.59;5076296;28;20062;-84
2022/01/20 09:38:20;;;;;;;15.27;4.70;;;;;;;2.40;100.00;99896.09;5094537;28;20070;-84
2022/01/20 09:40:48;;;;;;;10.35;4.50;;;;;;;2.43;100.00;99885.13;5094597;28;20388;-84
2022/01/20 09:43:15;;;;;;;11.65;4.88;;;;;;;2.37;100.00;99882.91;5094077;28;20551;-83
2022/01/20 09:45:42;;;;;;;16.90;4.88;;;;;;;2.54;100.00;99896.88;5094666;28;20050;-84
2022/01/20 09:48:12;;;;;;;8.40;3.80;;;;;;;2.47;100.00;99873.19;5094389;28;20062;-84
2022/01/20 09:50:39;;;;;;;12.17;4.00;;;;;;;2.56;100.00;99884.19;5094495;28;20043;-84
2022/01/20 09:53:06;;;;;;;12.75;3.75;;;;;;;2.61;100.00;99893.63;5094142;28;20286;-84
2022/01/20 09:55:35;;;;;;;21.60;4.95;;;;;;;2.79;100.00;99901.28;5094417;28;20075;-84
2022/01/20 09:58:04;;;;;;;17.48;4.93;;;;;;;2.87;100.00;99914.94;5094186;28;20056;-84
2022/01/20 10:00:31;;;;;;;7.50;4.07;;;;;;;2.73;100.00;99905.28;5094288;28;20056;-84
2022/01/20 10:03:00;;;;;;;21.77;5.18;;;;;;;2.76;100.00;99909.56;5094161;28;20044;-84
2022/01/20 10:05:29;;;;;;;10.03;4.00;;;;;;;2.85;100.00;99924.97;5091709;28;20075;-84
2022/01/20 10:08:01;;;;;;;15.30;4.80;;;;;;;2.74;100.00;99898.94;5093354;28;20130;-84
2022/01/20 10:10:45;;;;;;;17.50;5.20;;;;;;;2.74;100.00;99892.69;5094067;28;20052;-85
2022/01/20 10:13:17;;;;;;;9.43;3.30;;;;;;;2.76;100.00;99893.44;5093941;28;20509;-84
2022/01/20 10:15:55;;;;;;;11.93;3.92;;;;;;;2.77;100.00;99901.38;5093135;28;20167;-84
2022/01/20 10:18:24;;;;;;;14.30;3.30;;;;;;;2.79;100.00;99902.13;5092899;28;20040;-84
2022/01/20 10:21:17;;;;;;;13.15;3.75;;;;;;;2.87;100.00;99896.16;5090548;28;20051;-84
2022/01/20 10:23:46;;;;;;;16.33;3.90;;;;;;;2.99;100.00;99907.78;5092662;28;20105;-84
2022/01/20 10:26:18;;;;;;;6.35;2.83;;;;;;;3.01;100.00;99913.88;5092432;28;20123;-84
2022/01/20 10:28:59;;;;;;;8.15;3.35;;;;;;;2.96;100.00;99895.44;5092784;28;20048;-85
2022/01/20 10:31:41;;;;;;;20.52;3.97;;;;;;;2.97;100.00;99902.53;5092624;28;20062;-82
2022/01/20 10:34:30;;;;;;;14.25;3.63;;;;;;;2.97;100.00;99904.38;5092592;28;20518;-82
2022/01/20 10:37:02;;;;;;;16.60;3.83;;;;;;;2.87;100.00;99893.47;5092210;28;20058;-82
2022/01/20 10:39:35;;;;;;;13.32;3.50;;;;;;;2.86;100.00;99886.41;5092999;28;20056;-84
2022/01/20 10:42:06;;;;;;;13.38;4.47;;;;;;;2.80;100.00;99894.91;5091955;28;20044;-84
2022/01/20 10:44:46;;;;;;;8.40;2.70;;;;;;;2.81;100.00;99904.69;5092529;28;20051;-84
2022/01/20 10:47:19;;;;;;;6.65;3.60;;;;;;;2.71;100.00;99883.06;5091328;28;20044;-84
2022/01/20 10:49:59;;;;;;;10.90;3.65;;;;;;;2.77;100.00;99896.03;5092124;28;20051;-84
2022/01/20 10:52:48;;;;;;;;;;;;;;;;;;;;;
2022/01/20 10:55:23;;;;;;;10.57;3.60;;;;;;;2.90;100.00;99909.34;5091825;28;20052;-84
2022/01/20 10:57:54;;;;;;;12.95;3.88;;;;;;;2.92;100.00;99902.03;5091612;28;20116;-84
2022/01/20 11:00:26;;;;;;;10.88;3.40;;;;;;;2.87;100.00;99898.00;5092247;28;20125;-84
2022/01/20 11:02:58;;;;;;;14.02;3.78;;;;;;;2.87;100.00;99885.41;5091992;28;20497;-84
2022/01/20 11:05:29;;;;;;;10.48;3.97;;;;;;;2.84;100.00;99880.28;5092158;28;20406;-84
2022/01/20 11:07:57;;;;;;;9.30;3.33;;;;;;;2.88;100.00;99875.53;5091074;28;20044;-84
2022/01/20 11:10:24;;;;;;;9.40;2.55;;;;;;;3.09;100.00;99876.56;5091431;28;20491;-84
2022/01/20 11:12:58;;;;;;;16.25;3.55;;;;;;;3.23;100.00;99850.44;5091220;28;20044;-84
2022/01/20 11:15:34;;;;;;;17.02;5.47;;;;;;;3.34;100.00;99864.75;5091860;28;20485;-84
2022/01/20 11:18:09;;;;;;;12.60;3.53;;;;;;;3.37;100.00;99844.81;5090788;28;20043;-84
2022/01/20 11:20:44;;;;;;;14.82;2.72;;;;;;;3.40;100.00;99844.56;5091718;28;20051;-84
2022/01/20 11:23:14;;;;;;;8.48;2.25;;;;;;;3.61;100.00;99858.13;5091783;28;20048;-84
2022/01/20 11:25:46;;;;;;;7.70;2.50;;;;;;;3.63;100.00;99860.69;5092130;28;20048;-83
2022/01/20 11:28:19;;;;;;;6.88;2.75;;;;;;;3.59;100.00;99857.41;5091216;28;20056;-83
2022/01/20 11:30:58;;;;;;;7.47;2.75;;;;;;;3.42;100.00;99850.69;5091494;28;20122;-83
2022/01/20 11:33:35;;;;;;;8.57;2.47;;;;;;;3.24;100.00;99842.25;5091136;28;20127;-83
2022/01/20 11:36:07;;;;;;;6.35;2.15;;;;;;;3.23;100.00;99850.44;5091116;28;20099;-83
2022/01/20 11:38:41;;;;;;;8.40;2.30;;;;;;;3.23;100.00;99850.44;5091579;28;20095;-83
2022/01/20 11:41:13;;;;;;;11.75;3.30;;;;;;;3.10;100.00;99850.53;5091049;28;20058;-83
2022/01/20 11:43:47;;;;;;;10.10;3.22;;;;;;;3.06;100.00;99866.06;5071313;28;20049;-83
2022/01/20 11:46:17;;;;;;;8.93;2.70;;;;;;;2.76;100.00;99863.91;5070735;28;20465;-84
2022/01/20 11:48:54;;;;;;;6.65;3.17;;;;;;;2.62;100.00;99859.56;5071778;28;20057;-83
2022/01/20 11:51:23;;;;;;;13.35;3.60;;;;;;;2.54;100.00;99856.63;5087358;28;20064;-83
2022/01/20 11:53:57;;;;;;;12.52;3.30;;;;;;;2.54;100.00;99862.84;5091931;28;20044;-83
2022/01/20 11:56:33;;;;;;;15.20;3.88;;;;;;;2.26;100.00;99878.34;5090712;28;20048;-83
2022/01/20 11:59:00;;;;;;;7.82;3.67;;;;;;;2.21;100.00;99874.28;5091449;28;20446;-82
2022/01/20 12:01:30;;;;;;;8.63;3.40;;;;;;;2.09;100.00;99860.84;5090978;28;20043;-82
2022/01/20 12:03:57;;;;;;;;;;;;;;;2.08;100.00;99866.31;5091764;28;20141;-83
2022/01/20 12:06:25;;;;;;;9.95;2.95;;;;;;;2.10;100.00;99865.22;5090778;28;19924;-83
2022/01/20 12:08:57;;;;;;;8.90;2.83;;;;;;;2.17;100.00;99854.91;5091544;28;20047;-83
2022/01/20 12:11:35;;;;;;;8.70;3.38;;;;;;;2.14;100.00;99849.75;5090398;28;20139;-83
2022/01/20 12:14:02;;;;;;;10.13;3.50;;;;;;;2.20;100.00;99861.84;5090330;28;20055;-83
2022/01/20 12:16:33;;;;;;;15.70;2.80;;;;;;;2.13;100.00;99877.53;5091064;28;20524;-83
2022/01/20 12:19:01;;;;;;;9.77;3.70;;;;;;;2.07;100.00;99872.63;5091582;28;20051;-83
2022/01/20 12:21:31;;;;;;;10.80;3.63;;;;;;;2.23;100.00;99880.38;5091266;28;20071;-83
2022/01/20 12:24:00;;;;;;;6.90;3.13;;;;;;;2.22;100.00;99882.22;5087918;28;20040;-83
2022/01/20 12:26:34;;;;;;;7.68;2.75;;;;;;;2.02;100.00;99870.28;5089195;28;20052;-83
2022/01/20 12:29:02;;;;;;;9.98;2.83;;;;;;;2.21;100.00;99880.50;5090821;28;20051;-83
2022/01/20 12:31:31;;;;;;;11.05;2.80;;;;;;;2.10;100.00;99869.72;5094094;28;20068;-83
2022/01/20 12:33:57;;;;;;;9.77;2.78;;;;;;;2.13;100.00;99875.72;5093749;28;20040;-83
2022/01/20 12:36:24;;;;;;;7.47;2.13;;;;;;;1.90;100.00;99863.16;5093890;28;20051;-83
2022/01/20 12:38:52;;;;;;;8.18;2.17;;;;;;;2.03;100.00;99881.88;5094546;28;20277;-83
2022/01/20 12:41:20;;;;;;;9.68;2.60;;;;;;;2.00;100.00;99880.25;5094519;28;20062;-83
2022/01/20 12:43:50;;;;;;;7.75;2.83;;;;;;;1.99;100.00;99881.25;5094923;28;20534;-83
2022/01/20 12:46:19;;;;;;;6.70;2.42;;;;;;;2.07;100.00;99888.72;5096554;28;20044;-83
2022/01/20 12:48:58;;;;;;;6.63;1.98;;;;;;;2.07;100.00;99894.09;5096736;28;20056;-83
2022/01/20 12:51:37;;;;;;;5.97;2.22;;;;;;;2.10;100.00;99893.88;5096819;28;20487;-83
2022/01/20 12:54:06;;;;;;;6.82;2.42;;;;;;;2.03;100.00;99877.38;5096759;28;20059;-83
2022/01/20 12:56:36;;;;;;;6.20;2.58;;;;;;;2.15;100.00;99897.06;5096290;28;20048;-83
2022/01/20 12:59:04;;;;;;;7.78;2.13;;;;;;;2.06;100.00;99909.34;5096640;28;20043;-83
2022/01/20 13:01:42;;;;;;;22.40;3.50;;;;;;;1.92;100.00;99896.91;5096362;28;20135;-83
2022/01/20 13:04:10;;;;;;;9.38;3.22;;;;;;;1.89;100.00;99905.19;5096478;28;20078;-83
2022/01/20 13:06:41;;;;;;;7.95;2.83;;;;;;;1.82;100.00;99906.59;5096418;28;20048;-83
2022/01/20 13:09:10;;;;;;;9.73;2.08;;;;;;;1.90;100.00;99911.44;5096394;28;20458;-83
2022/01/20 13:11:51;;;;;;;7.93;2.75;;;;;;;1.80;100.00;99921.09;5096066;28;20079;-83
2022/01/20 13:14:18;;;;;;;11.98;2.33;;;;;;;1.73;100.00;99909.94;5096844;28;20116;-83
2022/01/20 13:16:52;;;;;;;9.73;2.50;;;;;;;1.71;100.00;99902.00;5096072;28;20051;-83
2022/01/20 13:19:31;;;;;;;9.80;2.45;;;;;;;1.74;100.00;99914.34;5096210;28;20052;-83
2022/01/20 13:22:00;;;;;;;10.07;2.30;;;;;;;1.77;100.00;99903.41;5095985;28;20055;-83
2022/01/20 13:24:30;;;;;;;6.30;2.17;;;;;;;1.69;100.00;99889.69;5095978;28;20055;-83
2022/01/20 13:26:59;;;;;;;12.65;2.85;;;;;;;1.83;100.00;99910.16;5096307;28;20109;-84
2022/01/20 13:29:42;;;;;;;10.82;2.90;;;;;;;1.74;100.00;99901.78;5096476;28;20044;-83
2022/01/20 13:32:09;;;;;;;17.45;2.80;;;;;;;1.73;100.00;99913.50;5094283;28;20052;-83
2022/01/20 13:34:37;;;;;;;7.78;2.17;;;;;;;1.68;100.00;99904.06;5095972;28;20381;-83
2022/01/20 13:37:05;;;;;;;9.85;3.05;;;;;;;1.65;100.00;99890.88;5095646;28;20052;-83
2022/01/20 13:39:34;;;;;;;8.85;2.83;;;;;;;1.58;100.00;99890.44;5096059;28;20085;-83
2022/01/20 13:42:06;;;;;;;5.65;2.33;;;;;;;1.61;100.00;99886.69;5095852;28;20044;-83
2022/01/20 13:47:18;;;;;;;9.43;2.25;;;;;;;1.71;100.00;99891.28;5094350;28;20510;-83
2022/01/20 13:49:52;;;;;;;13.30;2.80;;;;;;;1.67;100.00;99881.78;5094224;28;20548;-83
2022/01/20 13:52:20;;;;;;;8.60;3.45;;;;;;;1.67;100.00;99911.25;5094509;28;20074;-84
2022/01/20 13:54:55;;;;;;;6.68;2.45;;;;;;;1.60;100.00;99912.66;5093649;28;20044;-83
2022/01/20 13:57:23;;;;;;;5.95;3.13;;;;;;;1.54;100.00;99910.41;5093936;28;20131;-85
2022/01/20 13:59:56;;;;;;;10.50;2.95;;;;;;;1.30;100.00;99895.09;5094585;28;20109;-85
2022/01/20 14:02:32;;;;;;;10.90;2.95;;;;;;;1.34;100.00;99917.16;5094315;28;20406;-84
2022/01/20 14:05:00;;;;;;;8.25;2.70;;;;;;;1.15;100.00;99901.53;5094197;28;20072;-83
2022/01/20 14:07:26;;;;;;;8.65;3.30;;;;;;;1.17;100.00;99905.78;5093806;28;20051;-84
2022/01/20 14:09:55;;;;;;;12.70;3.25;;;;;;;1.22;100.00;99918.91;5094641;28;20063;-83
2022/01/20 14:12:22;;;;;;;10.15;3.10;;;;;;;1.22;100.00;99921.56;5094049;28;20051;-83
2022/01/20 14:14:49;;;;;;;7.90;4.30;;;;;;;1.17;100.00;99923.69;5093967;28;20082;-83
2022/01/20 14:17:17;;;;;;;9.20;3.63;;;;;;;1.18;100.00;99936.13;5093816;28;20044;-84
2022/01/20 14:19:53;;;;;;;9.18;3.78;;;;;;;1.16;100.00;99936.25;5093648;28;20699;-83
2022/01/20 14:22:25;;;;;;;8.43;3.20;;;;;;;1.00;100.00;99944.47;5093774;28;20056;-83
2022/01/20 14:24:55;;;;;;;13.75;3.25;;;;;;;0.99;100.00;99947.25;5093676;28;20043;-83
2022/01/20 14:27:23;;;;;;;6.88;3.80;;;;;;;0.84;100.00;99944.66;5093556;28;20048;-83
2022/01/20 14:29:50;;;;;;;11.52;3.80;;;;;;;0.78;100.00;99947.72;5093515;28;20063;-90
2022/01/20 14:32:18;;;;;;;9.65;3.58;;;;;;;0.74;100.00;99940.88;5093727;28;20048;-83
2022/01/20 14:34:45;;;;;;;12.50;3.58;;;;;;;0.80;100.00;99952.97;5093291;28;20101;-83
2022/01/20 14:37:14;;;;;;;10.10;4.13;;;;;;;0.83;100.00;99950.13;5093649;28;20051;-83
2022/01/20 14:39:47;;;;;;;9.25;3.88;;;;;;;0.85;100.00;99929.44;5093236;28;20127;-83
2022/01/20 14:42:15;;;;;;;13.05;3.63;;;;;;;0.94;100.00;99936.00;5094428;28;20075;-83
2022/01/20 14:44:42;;;;;;;16.80;4.40;;;;;;;0.95;100.00;99932.34;5094650;28;20044;-84
2022/01/20 14:47:10;;;;;;;12.13;3.95;;;;;;;1.08;100.00;99945.75;5094183;28;20076;-83
2022/01/20 14:49:44;;;;;;;14.77;5.20;;;;;;;1.11;100.00;99950.91;5081504;28;20094;-83
2022/01/20 14:52:14;;;;;;;8.90;4.50;;;;;;;0.99;100.00;99933.84;5073801;28;20048;-84
2022/01/20 14:54:46;;;;;;;13.57;4.45;;;;;;;1.16;100.00;99955.00;5074299;28;20049;-84
2022/01/20 14:57:19;;;;;;;13.30;5.90;;;;;;;1.13;100.00;99940.94;5074154;28;20053;-84
2022/01/20 15:00:15;;;;;;;17.33;5.10;;;;;;;1.18;100.00;99953.06;5073952;28;20052;-84
2022/01/20 15:02:47;;;;;;;8.60;4.00;;;;;;;1.26;100.00;99968.59;5074158;28;20075;-84
2022/01/20 15:05:17;;;;;;;17.27;5.95;;;;;;;1.24;100.00;99971.38;5084312;28;20453;-84
2022/01/20 15:07:46;;;;;;;40.50;8.85;;;;;;;1.13;100.00;99954.31;5093293;28;20839;-84
2022/01/20 15:10:20;;;;;;;9.83;3.63;;;;;;;1.22;100.00;99972.47;5093347;28;20466;-84
2022/01/20 15:12:51;;;;;;;12.05;6.80;;;;;;;1.26;100.00;99973.94;5093284;28;20278;-84
2022/01/20 15:15:20;;;;;;;9.95;5.88;;;;;;;1.12;100.00;99963.34;5093384;28;20650;-84
2022/01/20 15:18:00;;;;;;;11.25;4.70;;;;;;;1.14;100.00;99975.66;5092056;28;20139;-83
2022/01/20 15:20:30;;;;;;;14.15;4.97;;;;;;;1.11;100.00;99981.22;5090941;28;20044;-84
2022/01/20 15:22:57;;;;;;;5.75;2.83;;;;;;;1.09;100.00;99972.44;5091936;28;20135;-83
2022/01/20 15:25:25;;;;;;;12.85;4.07;;;;;;;1.10;100.00;99960.78;5091576;28;20078;-84
2022/01/20 15:27:53;;;;;;;7.68;2.95;;;;;;;1.27;100.00;99986.41;5091807;28;20060;-83
2022/01/20 15:30:26;;;;;;;10.98;3.97;;;;;;;1.23;100.00;99976.84;5092210;28;20047;-84
2022/01/20 15:32:55;;;;;;;14.75;5.10;;;;;;;1.27;100.00;99980.19;5091781;28;20051;-83
2022/01/20 15:35:24;;;;;;;15.48;5.72;;;;;;;1.23;100.00;99968.81;5090412;28;20060;-84
2022/01/20 15:37:51;;;;;;;22.88;6.82;;;;;;;1.22;100.00;99980.50;5090188;28;20048;-83
2022/01/20 15:40:18;;;;;;;13.20;5.70;;;;;;;1.14;100.00;99977.47;5090161;28;20044;-84
2022/01/20 15:42:47;;;;;;;11.90;5.43;;;;;;;0.95;100.00;99973.38;5091316;28;20395;-84
2022/01/20 15:45:14;;;;;;;13.07;4.18;;;;;;;0.90;100.00;99988.03;5091035;28;20071;-84
2022/01/20 15:47:41;;;;;;;17.85;5.68;;;;;;;0.95;100.00;100005.50;5092832;28;20052;-84
2022/01/20 15:50:10;;;;;;;10.27;5.53;;;;;;;0.92;100.00;100000.38;5093435;28;20048;-83
2022/01/20 15:52:37;;;;;;;10.20;4.47;;;;;;;0.98;100.00;99994.59;5093610;28;20507;-84
2022/01/20 15:55:05;;;;;;;11.93;5.78;;;;;;;0.85;100.00;99988.34;5093526;28;20044;-84
2022/01/20 15:57:35;;;;;;;16.38;5.13;;;;;;;0.88;100.00;99994.34;5090973;28;20083;-84
2022/01/20 16:00:04;;;;;;;;;;;;;;;1.09;100.00;100015.28;5091773;28;20044;-84
2022/01/20 16:02:30;;;;;;;11.10;3.97;;;;;;;1.04;100.00;99996.84;5091266;28;19930;-84
2022/01/20 16:04:58;;;;;;;7.63;3.80;;;;;;;1.05;100.00;100005.72;5093999;28;20075;-83
2022/01/20 16:07:25;;;;;;;8.55;3.10;;;;;;;0.97;100.00;100014.28;5096589;28;20068;-84
2022/01/20 16:09:52;;;;;;;6.47;2.03;;;;;;;1.01;100.00;100036.34;5096628;28;20074;-84
2022/01/20 16:12:18;;;;;;;6.85;2.47;;;;;;;0.97;100.00;100026.81;5096727;28;20094;-84
2022/01/20 16:14:45;;;;;;;4.40;1.70;;;;;;;0.78;99.53;100013.78;5096305;28;20120;-84
2022/01/20 16:17:13;;;;;;;6.65;2.17;;;;;;;0.87;96.31;100029.25;5096309;28;20079;-83
2022/01/20 16:19:42;;;;;;;5.70;1.70;;;;;;;0.80;97.89;100043.97;5097430;28;20094;-83
2022/01/20 16:22:09;;;;;;;3.42;1.30;;;;;;;0.68;93.99;100033.13;5097342;28;20052;-82
2022/01/20 16:24:35;;;;;;;2.95;1.20;;;;;;;0.62;94.45;100028.19;5096154;28;20052;-83
2022/01/20 16:27:02;;;;;;;10.85;1.73;;;;;;;0.69;96.92;100039.34;5095628;28;20480;-83
2022/01/20 16:29:29;;;;;;;3.25;1.77;;;;;;;0.56;96.80;100039.31;5094765;28;20056;-83
2022/01/20 16:31:56;;;;;;;3.05;1.15;;;;;;;0.48;98.39;100030.91;5096057;28;20083;-83
2022/01/20 16:34:27;;;;;;;4.45;2.00;;;;;;;0.55;100.00;100050.94;5095629;28;20564;-83
2022/01/20 16:36:57;;;;;;;2.30;1.55;;;;;;;0.46;99.25;100052.41;5095938;28;20131;-83
2022/01/20 16:39:24;;;;;;;4.10;2.30;;;;;;;0.51;100.00;100068.16;5095478;28;20071;-83
2022/01/20 16:41:50;;;;;;;12.25;2.63;;;;;;;0.37;100.00;100061.00;5095840;28;20044;-83
2022/01/20 16:44:18;;;;;;;8.75;2.20;;;;;;;0.44;100.00;100064.19;5095203;28;20072;-83
2022/01/20 16:46:45;;;;;;;7.85;2.45;;;;;;;0.38;100.00;100062.75;5095325;28;20044;-83
2022/01/20 16:49:12;;;;;;;9.10;2.50;;;;;;;0.42;100.00;100061.59;5095653;28;20256;-83
2022/01/20 16:51:40;;;;;;;11.45;3.50;;;;;;;0.31;100.00;100067.59;5095434;28;20056;-83
2022/01/20 16:54:06;;;;;;;6.20;2.70;;;;;;;0.37;100.00;100081.56;5095634;28;20044;-83
2022/01/20 16:56:33;;;;;;;9.48;2.28;;;;;;;0.26;100.00;100077.75;5095503;28;20044;-83
2022/01/20 16:59:00;;;;;;;5.30;2.53;;;;;;;0.33;100.00;100084.44;5095607;28;20072;-83
2022/01/20 17:01:27;;;;;;;14.38;3.83;;;;;;;0.37;100.00;100101.13;5095031;28;20048;-83
2022/01/20 17:03:54;;;;;;;11.35;3.38;;;;;;;0.27;100.00;100090.19;5094995;28;20139;-83
2022/01/20 17:06:21;;;;;;;11.68;3.60;;;;;;;0.16;100.00;100085.47;5094603;28;20548;-83
2022/01/20 17:08:49;;;;;;;11.75;3.85;;;;;;;0.13;100.00;100100.88;5095215;28;20075;-83
2022/01/20 17:11:17;;;;;;;7.70;3.42;;;;;;;0.09;100.00;100096.66;5094888;28;20059;-82
2022/01/20 17:13:43;;;;;;;12.40;4.53;;;;;;;0.15;100.00;100109.63;5095196;28;20054;-83
2022/01/20 17:16:10;;;;;;;10.80;4.53;;;;;;;0.10;100.00;100107.25;5094229;28;20126;-83
2022/01/20 17:18:37;;;;;;;10.60;5.18;;;;;;;0.06;100.00;100099.53;5095113;28;20400;-83
2022/01/20 17:21:04;;;;;;;7.72;3.85;;;;;;;-0.01;100.00;100083.00;5094937;28;20131;-82
2022/01/20 17:23:32;;;;;;;6.13;3.40;;;;;;;0.00;100.00;100092.75;5095018;28;20483;-80
2022/01/20 17:26:04;;;;;;;6.03;3.38;;;;;;;-0.10;100.00;100099.63;5094645;28;20056;-81
2022/01/20 17:28:35;;;;;;;9.38;3.20;;;;;;;-0.12;100.00;100126.44;5094664;28;20076;-81
2022/01/20 17:31:01;;;;;;;11.95;2.83;;;;;;;-0.11;100.00;100128.13;5094940;28;20048;-81
2022/01/20 17:33:28;;;;;;;7.03;2.70;;;;;;;-0.13;100.00;100113.16;5095016;28;20058;-83
2022/01/20 17:35:55;;;;;;;11.07;3.45;;;;;;;-0.17;100.00;100122.31;5094476;28;20487;-81
2022/01/20 17:38:33;;;;;;;7.10;2.88;;;;;;;-0.13;100.00;100134.56;5094004;28;20357;-81
